首页
METAR-TAF:

METAR-TAF

机场 :

默特尔比奇, 南卡罗来纳州, 美国

纬度: 33-41N, 经度: 078-56W, 海拔: 8米

当前天气观测

该预报发布于53分钟前的07:56 UTC
风速3节,风向西转西南
温度 14°C
湿度 88%
气压 1020 hPa
能見度: 16.1公里
天空无云

METAR: KMYR 230756Z AUTO 25003KT 10SM CLR 14/12 A3013 RMK AO2 SLP202 T01440122

时间: 04:49 (08:49 UTC)

预报

该预报发布于3小时和29分钟前的05:20 UTC
预报有效从23日的 06点(UTC)到 24日的 06点(UTC)
风速5节,风向西
能見度: 10公里
天空无云
从 23日的 1600点(UTC)
风速15节,风向
能見度: 10公里
天空无云
从 24日的 0300点(UTC)
风速7节,风向西南
能見度: 10公里
散云层高于25000英尺

TAF: KMYR 230520Z 2306/2406 26005KT P6SM SKC FM231600 19015KT P6SM SKC FM240300 22007KT P6SM SCT250

超过4000个机场的气象观测和天气预报(METAR&TAF报告)。

可查询的气象台以黄色和红色小点在地图上表示。

将鼠标移到小点上方,可查看气象台名称。

然后点击查看天气观测和预报。

如需切换地图:点击带黑十字的绿色按钮放大地图;点击带横线的绿色按钮缩小地图;或者点击绿色箭头查看邻近地区的地图。


METAR-TAF: